createdAt,value
2022-08-31T00:01:01.151Z,10.88
2022-08-31T00:04:04.677Z,10.79
2022-08-31T00:07:08.859Z,10.66
2022-08-31T00:10:14.999Z,10.61
2022-08-31T00:13:18.361Z,10.51
2022-08-31T00:16:21.076Z,10.59
2022-08-31T00:19:23.696Z,10.57
2022-08-31T00:22:27.613Z,10.74
2022-08-31T00:25:30.868Z,10.81
2022-08-31T00:28:33.383Z,10.74
2022-08-31T00:31:35.917Z,10.76
2022-08-31T00:34:38.447Z,10.86
2022-08-31T00:37:42.233Z,10.99
2022-08-31T00:40:46.797Z,11.03
2022-08-31T00:43:52.249Z,10.97
2022-08-31T00:46:56.723Z,10.81
2022-08-31T00:50:00.421Z,10.79
2022-08-31T00:53:04.217Z,10.89
2022-08-31T00:56:06.841Z,10.88
2022-08-31T00:59:09.413Z,10.90
2022-08-31T01:02:12.011Z,10.84
2022-08-31T01:05:15.298Z,10.79
2022-08-31T01:08:19.845Z,10.94
2022-08-31T01:11:34.490Z,10.72
2022-08-31T01:14:39.205Z,10.66
2022-08-31T01:17:44.047Z,10.64
2022-08-31T01:21:09.854Z,10.87
2022-08-31T01:24:15.423Z,10.81
2022-08-31T01:27:24.035Z,10.90
2022-08-31T01:30:27.535Z,11.07
2022-08-31T01:33:30.915Z,11.16
2022-08-31T01:36:35.442Z,11.25
2022-08-31T01:39:39.265Z,11.25
2022-08-31T01:42:41.718Z,11.12
2022-08-31T01:45:44.620Z,11.01
2022-08-31T01:48:49.009Z,10.95
2022-08-31T01:51:53.742Z,10.90
2022-08-31T01:54:57.597Z,10.89
2022-08-31T01:58:01.354Z,10.84
2022-08-31T02:01:10.628Z,10.89
2022-08-31T02:04:30.704Z,10.90
2022-08-31T02:07:33.231Z,10.82
2022-08-31T02:10:38.058Z,10.82
2022-08-31T02:13:41.062Z,10.74
2022-08-31T02:16:43.844Z,10.74
2022-08-31T02:19:46.498Z,10.69
2022-08-31T02:22:49.529Z,10.56
2022-08-31T02:25:53.372Z,10.46
2022-08-31T02:28:55.952Z,10.55
2022-08-31T02:31:59.106Z,10.44
2022-08-31T02:35:01.577Z,10.11
2022-08-31T02:38:04.057Z,9.98
2022-08-31T02:41:08.978Z,10.06
2022-08-31T02:44:11.559Z,10.08
2022-08-31T02:47:14.107Z,10.12
2022-08-31T02:50:16.675Z,10.08
2022-08-31T02:53:21.155Z,10.00
2022-08-31T02:56:25.880Z,9.92
2022-08-31T02:59:28.657Z,9.82
2022-08-31T03:02:31.652Z,9.76
2022-08-31T03:05:34.743Z,9.73
2022-08-31T03:08:39.442Z,9.69
2022-08-31T03:11:43.317Z,9.63
2022-08-31T03:14:45.797Z,9.41
2022-08-31T03:17:49.125Z,9.40
2022-08-31T03:20:51.688Z,9.40
2022-08-31T03:23:54.154Z,9.37
2022-08-31T03:26:57.949Z,9.42
2022-08-31T03:30:00.685Z,9.43
2022-08-31T03:33:03.581Z,9.42
2022-08-31T03:36:06.309Z,9.42
2022-08-31T03:39:08.792Z,9.46
2022-08-31T03:42:13.220Z,9.53
2022-08-31T03:45:15.678Z,9.59
2022-08-31T03:48:18.279Z,9.52
2022-08-31T03:51:21.094Z,9.50
2022-08-31T03:54:23.873Z,9.48
2022-08-31T03:57:27.737Z,9.42
2022-08-31T04:00:31.215Z,9.36
2022-08-31T04:03:33.875Z,9.29
2022-08-31T04:06:36.490Z,9.30
2022-08-31T04:09:38.958Z,9.30
2022-08-31T04:12:42.773Z,9.23
2022-08-31T04:15:46.646Z,9.05
2022-08-31T04:18:49.242Z,9.01
2022-08-31T04:21:51.711Z,9.12
2022-08-31T04:24:54.273Z,9.20
2022-08-31T04:27:58.484Z,9.30
2022-08-31T04:31:08.899Z,9.39
2022-08-31T04:34:11.662Z,9.47
2022-08-31T04:37:14.713Z,9.84
2022-08-31T04:40:20.229Z,10.38
2022-08-31T04:43:30.754Z,11.11
2022-08-31T04:46:34.539Z,11.58
2022-08-31T04:49:37.098Z,11.78
2022-08-31T04:52:39.650Z,11.77
2022-08-31T04:55:43.979Z,12.78
2022-08-31T04:58:50.807Z,13.67
2022-08-31T05:01:53.574Z,14.75
2022-08-31T05:04:56.138Z,16.01
2022-08-31T05:07:58.639Z,16.98
2022-08-31T05:11:01.111Z,17.72
2022-08-31T05:14:07.236Z,18.19
2022-08-31T05:17:15.052Z,18.53
2022-08-31T05:20:18.441Z,19.00
2022-08-31T05:23:21.021Z,18.82
2022-08-31T05:26:26.766Z,18.67
2022-08-31T05:29:30.713Z,19.01
2022-08-31T05:32:33.209Z,19.21
2022-08-31T05:35:37.560Z,19.59
2022-08-31T05:38:40.755Z,20.34
2022-08-31T05:41:45.796Z,21.15
2022-08-31T05:44:49.586Z,21.73
2022-08-31T05:47:52.141Z,21.70
2022-08-31T05:50:55.114Z,20.91
2022-08-31T05:54:00.039Z,20.44
2022-08-31T05:57:03.433Z,20.33
2022-08-31T06:00:09.235Z,20.60
2022-08-31T06:03:12.007Z,20.52
2022-08-31T06:06:16.872Z,20.33
2022-08-31T06:09:19.341Z,19.73
2022-08-31T06:12:25.535Z,19.04
2022-08-31T06:15:29.539Z,18.54
2022-08-31T06:18:32.028Z,18.13
2022-08-31T06:21:37.788Z,17.85
2022-08-31T06:24:41.103Z,17.74
2022-08-31T06:27:44.049Z,18.02
2022-08-31T06:30:55.394Z,18.40
2022-08-31T06:33:58.709Z,18.78
2022-08-31T06:37:01.423Z,19.43
2022-08-31T06:40:04.858Z,19.49
2022-08-31T06:43:07.856Z,19.37
2022-08-31T06:46:12.736Z,19.20
2022-08-31T06:49:15.321Z,19.22
2022-08-31T06:52:17.913Z,19.72
2022-08-31T06:55:20.572Z,20.26
2022-08-31T06:58:23.601Z,20.11
2022-08-31T07:01:34.771Z,20.08
2022-08-31T07:04:40.158Z,20.17
2022-08-31T07:07:42.626Z,20.30
2022-08-31T07:10:45.293Z,20.17
2022-08-31T07:13:48.950Z,20.21
2022-08-31T07:16:54.539Z,20.39
2022-08-31T07:19:57.030Z,20.48
2022-08-31T07:22:59.518Z,20.57
2022-08-31T07:26:05.474Z,21.38
2022-08-31T07:29:10.033Z,21.57
2022-08-31T07:32:17.311Z,21.65
2022-08-31T07:35:20.196Z,21.72
2022-08-31T07:38:40.238Z,22.08
2022-08-31T07:41:59.978Z,21.62
2022-08-31T07:45:05.470Z,21.78
2022-08-31T07:48:09.775Z,21.81
2022-08-31T07:51:15.175Z,22.09
2022-08-31T07:54:20.634Z,21.89
2022-08-31T07:57:25.803Z,21.36
2022-08-31T08:00:29.878Z,21.99
2022-08-31T08:03:33.657Z,22.00
2022-08-31T08:06:36.402Z,21.79
2022-08-31T08:09:39.806Z,21.97
2022-08-31T08:12:43.066Z,21.78
2022-08-31T08:15:45.792Z,21.88
2022-08-31T08:18:49.695Z,22.11
2022-08-31T08:21:52.207Z,22.08
2022-08-31T08:24:55.728Z,22.26
2022-08-31T08:27:58.479Z,22.37
2022-08-31T08:31:01.700Z,21.61
2022-08-31T08:34:05.620Z,22.22
2022-08-31T08:37:08.824Z,22.97
2022-08-31T08:40:26.779Z,22.83
2022-08-31T08:43:32.054Z,22.72
2022-08-31T08:46:40.190Z,22.86
2022-08-31T08:49:53.972Z,22.60
2022-08-31T08:53:03.673Z,22.51
2022-08-31T08:56:29.612Z,22.37
2022-08-31T08:59:29.566Z,21.23
2022-08-31T09:02:38.024Z,21.31
2022-08-31T09:05:56.592Z,22.05
2022-08-31T09:09:18.076Z,22.73
2022-08-31T09:12:30.900Z,23.33
2022-08-31T09:15:49.764Z,23.57
2022-08-31T09:18:57.181Z,22.70
2022-08-31T09:22:02.995Z,22.23
2022-08-31T09:25:06.151Z,21.84
2022-08-31T09:28:14.910Z,22.11
2022-08-31T09:31:34.635Z,21.36
2022-08-31T09:34:41.027Z,21.95
2022-08-31T09:37:57.968Z,22.65
2022-08-31T09:41:02.081Z,21.83
2022-08-31T09:44:32.371Z,21.67
2022-08-31T09:47:48.987Z,21.05
2022-08-31T09:51:02.856Z,21.79
2022-08-31T09:54:35.473Z,21.53
2022-08-31T09:57:54.100Z,22.11
2022-08-31T10:00:57.443Z,23.32
2022-08-31T10:04:18.671Z,24.12
2022-08-31T10:07:37.976Z,23.70
2022-08-31T10:10:44.869Z,24.05
2022-08-31T10:13:57.295Z,23.74
2022-08-31T10:17:05.546Z,24.87
2022-08-31T10:20:16.486Z,24.65
2022-08-31T10:23:27.099Z,23.71
2022-08-31T10:26:37.634Z,22.70
2022-08-31T10:29:46.083Z,21.79
2022-08-31T10:32:56.371Z,21.26
2022-08-31T10:36:01.969Z,20.80
2022-08-31T10:39:12.614Z,21.27
2022-08-31T10:42:25.205Z,22.74
2022-08-31T10:45:33.576Z,23.70
2022-08-31T10:48:54.396Z,22.39
2022-08-31T10:52:06.154Z,21.87
2022-08-31T10:55:19.561Z,23.05
2022-08-31T10:58:31.703Z,23.72
2022-08-31T11:01:45.498Z,24.11
2022-08-31T11:05:03.374Z,24.91
2022-08-31T11:08:24.524Z,25.29
2022-08-31T11:11:43.859Z,25.06
2022-08-31T11:15:09.689Z,24.47
2022-08-31T11:18:40.271Z,22.88
2022-08-31T11:22:16.361Z,22.11
2022-08-31T11:25:37.635Z,21.68
2022-08-31T11:28:46.021Z,21.82
2022-08-31T11:31:50.664Z,22.14
2022-08-31T11:34:56.501Z,21.78
2022-08-31T11:38:00.574Z,21.60
2022-08-31T11:41:04.055Z,23.01
2022-08-31T11:44:08.852Z,23.24
2022-08-31T11:47:34.665Z,23.48
2022-08-31T11:51:03.830Z,24.22
2022-08-31T11:54:12.577Z,25.02
2022-08-31T11:57:20.443Z,25.46
2022-08-31T12:00:23.037Z,25.50
2022-08-31T12:03:44.071Z,24.54
2022-08-31T12:07:00.290Z,23.05
2022-08-31T12:10:34.148Z,22.20
2022-08-31T12:13:48.955Z,22.42
2022-08-31T12:17:02.068Z,23.72
2022-08-31T12:20:15.034Z,24.86
2022-08-31T12:23:37.822Z,25.51
2022-08-31T12:26:49.958Z,25.16
2022-08-31T12:29:53.522Z,25.38
2022-08-31T12:33:02.033Z,25.51
2022-08-31T12:36:18.871Z,24.99
2022-08-31T12:39:23.623Z,24.38
2022-08-31T12:42:26.913Z,23.48
2022-08-31T12:45:54.708Z,23.39
2022-08-31T12:49:21.738Z,22.75
2022-08-31T12:52:43.318Z,22.94
2022-08-31T12:55:50.538Z,22.89
2022-08-31T12:59:09.678Z,22.62
2022-08-31T13:02:13.950Z,23.00
2022-08-31T13:05:21.946Z,22.72
2022-08-31T13:08:27.279Z,23.54
2022-08-31T13:11:39.842Z,23.53
2022-08-31T13:14:44.796Z,23.07
2022-08-31T13:17:47.492Z,22.89
2022-08-31T13:20:56.190Z,23.49
2022-08-31T13:24:07.530Z,23.35
2022-08-31T13:27:17.474Z,23.23
2022-08-31T13:30:25.513Z,24.76
2022-08-31T13:33:31.441Z,25.77
2022-08-31T13:36:38.682Z,26.23
2022-08-31T13:39:46.120Z,25.08
2022-08-31T13:42:54.362Z,23.61
2022-08-31T13:46:00.964Z,22.29
2022-08-31T13:49:06.711Z,21.62
2022-08-31T13:52:18.470Z,21.50
2022-08-31T13:55:39.938Z,21.40
2022-08-31T13:58:42.448Z,21.33
2022-08-31T14:01:47.829Z,21.27
2022-08-31T14:05:01.162Z,21.19
2022-08-31T14:08:08.209Z,21.22
2022-08-31T14:11:14.898Z,21.34
2022-08-31T14:14:21.499Z,21.40
2022-08-31T14:17:28.099Z,21.55
2022-08-31T14:20:37.066Z,21.64
2022-08-31T14:23:40.937Z,21.63
2022-08-31T14:26:45.367Z,21.62
2022-08-31T14:29:47.849Z,21.40
2022-08-31T14:32:50.339Z,21.42
2022-08-31T14:35:55.438Z,21.47
2022-08-31T14:38:58.646Z,21.65
2022-08-31T14:42:06.061Z,21.73
2022-08-31T14:45:18.428Z,21.62
2022-08-31T14:48:21.192Z,21.58
2022-08-31T14:51:24.140Z,21.58
2022-08-31T14:54:28.485Z,21.45
2022-08-31T14:57:34.521Z,21.33
2022-08-31T15:00:49.813Z,21.29
2022-08-31T15:03:55.314Z,21.20
2022-08-31T15:07:09.570Z,21.13
2022-08-31T15:10:12.832Z,21.18
2022-08-31T15:13:16.744Z,21.20
2022-08-31T15:16:19.270Z,21.23
2022-08-31T15:19:23.125Z,21.12
2022-08-31T15:22:26.756Z,21.14
2022-08-31T15:25:29.369Z,21.17
2022-08-31T15:28:37.325Z,21.30
2022-08-31T15:31:41.831Z,21.62
2022-08-31T15:34:57.697Z,21.84
2022-08-31T15:38:01.347Z,22.00
2022-08-31T15:41:04.847Z,22.44
2022-08-31T15:44:10.382Z,22.20
2022-08-31T15:47:30.736Z,21.96
2022-08-31T15:50:35.871Z,21.65
2022-08-31T15:53:42.797Z,21.43
2022-08-31T15:56:45.433Z,21.31
2022-08-31T15:59:50.105Z,21.32
2022-08-31T16:02:55.232Z,21.25
2022-08-31T16:05:58.780Z,21.08
2022-08-31T16:09:02.280Z,20.95
2022-08-31T16:12:05.406Z,20.84
2022-08-31T16:15:11.309Z,20.80
2022-08-31T16:18:15.646Z,20.67
2022-08-31T16:21:21.891Z,20.73
2022-08-31T16:24:25.118Z,20.62
2022-08-31T16:27:27.636Z,20.58
2022-08-31T16:30:33.276Z,20.64
2022-08-31T16:33:35.786Z,20.54
2022-08-31T16:36:38.282Z,20.42
2022-08-31T16:39:44.040Z,20.56
2022-08-31T16:42:46.674Z,20.41
2022-08-31T16:45:50.543Z,20.37
2022-08-31T16:49:11.226Z,20.33
2022-08-31T16:52:18.167Z,20.23
2022-08-31T16:55:21.243Z,20.11
2022-08-31T16:58:40.999Z,20.09
2022-08-31T17:01:48.676Z,19.98
2022-08-31T17:04:53.792Z,19.90
2022-08-31T17:07:57.075Z,19.84
2022-08-31T17:11:04.145Z,19.81
2022-08-31T17:14:08.897Z,19.72
2022-08-31T17:17:14.307Z,19.70
2022-08-31T17:20:17.313Z,19.64
2022-08-31T17:23:20.932Z,19.58
2022-08-31T17:26:24.353Z,19.52
2022-08-31T17:29:30.780Z,19.49
2022-08-31T17:32:44.771Z,19.38
2022-08-31T17:35:47.813Z,19.18
2022-08-31T17:38:52.123Z,19.11
2022-08-31T17:41:55.589Z,19.01
2022-08-31T17:44:59.154Z,18.90
2022-08-31T17:48:03.365Z,18.81
2022-08-31T17:51:09.841Z,18.57
2022-08-31T17:54:14.855Z,18.37
2022-08-31T17:57:19.157Z,18.13
2022-08-31T18:00:21.994Z,17.99
2022-08-31T18:03:26.302Z,17.86
2022-08-31T18:06:29.872Z,17.65
2022-08-31T18:09:35.302Z,17.49
2022-08-31T18:12:41.872Z,17.56
2022-08-31T18:15:44.959Z,17.44
2022-08-31T18:18:50.605Z,17.28
2022-08-31T18:21:54.031Z,17.16
2022-08-31T18:24:58.133Z,17.18
2022-08-31T18:28:03.327Z,17.03
2022-08-31T18:31:07.596Z,16.96
2022-08-31T18:34:14.958Z,16.86
2022-08-31T18:37:22.170Z,16.84
2022-08-31T18:40:43.401Z,16.92
2022-08-31T18:44:03.610Z,16.87
2022-08-31T18:47:09.056Z,16.84
2022-08-31T18:50:12.887Z,16.69
2022-08-31T18:53:27.833Z,16.62
2022-08-31T18:56:33.351Z,16.54
2022-08-31T18:59:35.883Z,16.52
2022-08-31T19:02:41.397Z,16.51
2022-08-31T19:05:45.226Z,16.44
2022-08-31T19:08:48.404Z,16.26
2022-08-31T19:11:51.578Z,16.06
2022-08-31T19:14:55.449Z,15.92
2022-08-31T19:17:58.162Z,15.80
2022-08-31T19:21:15.621Z,15.62
2022-08-31T19:24:19.326Z,15.56
2022-08-31T19:27:21.870Z,15.55
2022-08-31T19:30:28.081Z,15.42
2022-08-31T19:33:33.373Z,15.24
2022-08-31T19:36:38.856Z,15.04
2022-08-31T19:39:45.705Z,14.90
2022-08-31T19:46:14.403Z,14.92
2022-08-31T19:49:17.201Z,14.93
2022-08-31T19:52:21.109Z,14.82
2022-08-31T19:55:23.640Z,14.66
2022-08-31T19:58:26.583Z,14.57
2022-08-31T20:01:33.537Z,14.51
2022-08-31T20:04:36.886Z,14.38
2022-08-31T20:07:41.469Z,14.37
2022-08-31T20:10:46.582Z,14.42
2022-08-31T20:13:49.232Z,14.34
2022-08-31T20:16:52.472Z,14.25
2022-08-31T20:19:55.032Z,14.14
2022-08-31T20:22:58.912Z,14.04
2022-08-31T20:26:04.394Z,13.92
2022-08-31T20:29:10.400Z,13.76
2022-08-31T20:32:12.905Z,13.47
2022-08-31T20:35:15.565Z,13.37
2022-08-31T20:38:20.226Z,13.35
2022-08-31T20:41:22.755Z,13.21
2022-08-31T20:44:28.281Z,13.20
2022-08-31T20:47:48.110Z,13.18
2022-08-31T20:50:50.828Z,13.04
2022-08-31T20:53:54.653Z,12.91
2022-08-31T20:56:58.041Z,12.70
2022-08-31T21:00:05.429Z,12.52
2022-08-31T21:03:08.072Z,12.38
2022-08-31T21:06:13.000Z,12.49
2022-08-31T21:09:16.823Z,12.80
2022-08-31T21:12:21.028Z,12.94
2022-08-31T21:15:25.947Z,13.05
2022-08-31T21:18:29.565Z,13.11
2022-08-31T21:21:32.153Z,13.21
2022-08-31T21:24:39.161Z,13.36
2022-08-31T21:27:41.882Z,13.32
2022-08-31T21:30:46.718Z,13.32
2022-08-31T21:33:49.324Z,13.25
2022-08-31T21:36:52.291Z,13.33
2022-08-31T21:39:58.052Z,13.40
2022-08-31T21:43:02.063Z,13.36
2022-08-31T21:46:07.289Z,13.40
2022-08-31T21:49:10.740Z,13.35
2022-08-31T21:52:13.423Z,13.31
2022-08-31T21:55:18.252Z,13.18
2022-08-31T21:58:20.826Z,13.07
2022-08-31T22:01:23.904Z,12.93
2022-08-31T22:04:27.188Z,12.81
2022-08-31T22:07:29.673Z,12.74
2022-08-31T22:10:39.105Z,12.66
2022-08-31T22:13:43.856Z,12.58
2022-08-31T22:16:48.136Z,12.59
2022-08-31T22:19:53.359Z,12.67
2022-08-31T22:22:55.904Z,12.70
2022-08-31T22:25:59.832Z,12.67
2022-08-31T22:29:02.375Z,12.59
2022-08-31T22:32:10.624Z,12.54
2022-08-31T22:35:13.673Z,12.43
2022-08-31T22:38:18.953Z,12.37
2022-08-31T22:41:23.055Z,12.30
2022-08-31T22:44:28.354Z,12.23
2022-08-31T22:47:30.825Z,12.13
2022-08-31T22:50:35.321Z,12.08
2022-08-31T22:53:38.306Z,12.09
2022-08-31T22:56:42.139Z,12.13
2022-08-31T22:59:44.627Z,12.12
2022-08-31T23:02:47.151Z,12.05
2022-08-31T23:05:51.965Z,11.91
2022-08-31T23:08:57.472Z,11.81
2022-08-31T23:12:03.882Z,11.75
2022-08-31T23:15:10.006Z,11.67
2022-08-31T23:18:13.406Z,11.59
2022-08-31T23:21:17.977Z,11.51
2022-08-31T23:24:23.425Z,11.43
2022-08-31T23:27:27.288Z,11.38
2022-08-31T23:30:29.785Z,11.26
2022-08-31T23:33:32.258Z,11.24
2022-08-31T23:36:34.744Z,11.22
2022-08-31T23:39:38.871Z,11.19
2022-08-31T23:42:42.943Z,11.07
2022-08-31T23:45:45.464Z,10.92
2022-08-31T23:48:48.298Z,10.85
2022-08-31T23:51:50.898Z,10.79
2022-08-31T23:54:57.695Z,10.74
2022-08-31T23:58:02.369Z,10.76
